sensor_id;sensor_type;location;lat;lon;timestamp;pressure;altitude;pressure_sealevel;temperature;humidity
3254;BME280;1639;42.804;23.342;2022-12-18T00:01:51;74236.16;;;-148.52;100.00
3254;BME280;1639;42.804;23.342;2022-12-18T00:04:23;74236.16;;;-148.52;100.00
3254;BME280;1639;42.804;23.342;2022-12-18T00:06:48;74246.50;;;-148.52;100.00
3254;BME280;1639;42.804;23.342;2022-12-18T00:09:14;74254.78;;;-148.52;100.00
3254;BME280;1639;42.804;23.342;2022-12-18T00:11:40;74269.25;;;-148.52;100.00
3254;BME280;1639;42.804;23.342;2022-12-18T00:14:05;74281.66;;;-148.52;100.00
3254;BME280;1639;42.804;23.342;2022-12-18T00:16:31;74285.81;;;-148.52;100.00
3254;BME280;1639;42.804;23.342;2022-12-18T00:18:59;74289.94;;;-148.52;100.00
3254;BME280;1639;42.804;23.342;2022-12-18T00:21:25;74289.94;;;-148.52;100.00
3254;BME280;1639;42.804;23.342;2022-12-18T00:23:51;74302.34;;;-148.52;100.00
3254;BME280;1639;42.804;23.342;2022-12-18T00:26:26;74310.63;;;-148.52;100.00
3254;BME280;1639;42.804;23.342;2022-12-18T00:28:52;74320.97;;;-148.52;100.00
3254;BME280;1639;42.804;23.342;2022-12-18T00:31:23;74325.13;;;-148.52;100.00
3254;BME280;1639;42.804;23.342;2022-12-18T00:33:49;74333.38;;;-148.52;100.00
3254;BME280;1639;42.804;23.342;2022-12-18T00:36:18;74331.31;;;-148.52;100.00
3254;BME280;1639;42.804;23.342;2022-12-18T00:38:44;74329.25;;;-148.52;100.00
3254;BME280;1639;42.804;23.342;2022-12-18T00:41:12;74331.31;;;-148.52;100.00
3254;BME280;1639;42.804;23.342;2022-12-18T00:43:38;74329.25;;;-148.52;100.00
3254;BME280;1639;42.804;23.342;2022-12-18T00:46:05;74337.53;;;-148.52;100.00
3254;BME280;1639;42.804;23.342;2022-12-18T00:48:31;74325.13;;;-148.52;100.00
3254;BME280;1639;42.804;23.342;2022-12-18T00:50:56;74316.84;;;-148.52;100.00
3254;BME280;1639;42.804;23.342;2022-12-18T00:53:22;74327.19;;;-148.52;100.00
3254;BME280;1639;42.804;23.342;2022-12-18T00:55:47;74323.03;;;-148.52;100.00
3254;BME280;1639;42.804;23.342;2022-12-18T00:58:14;74337.53;;;-148.52;100.00
3254;BME280;1639;42.804;23.342;2022-12-18T01:00:40;74337.53;;;-148.52;100.00
3254;BME280;1639;42.804;23.342;2022-12-18T01:03:06;74331.31;;;-148.52;100.00
3254;BME280;1639;42.804;23.342;2022-12-18T01:05:32;74341.66;;;-148.52;100.00
3254;BME280;1639;42.804;23.342;2022-12-18T01:07:58;74341.66;;;-148.52;100.00
3254;BME280;1639;42.804;23.342;2022-12-18T01:10:24;74345.81;;;-148.52;100.00
3254;BME280;1639;42.804;23.342;2022-12-18T01:12:50;74354.06;;;-148.52;100.00
3254;BME280;1639;42.804;23.342;2022-12-18T01:15:15;74368.56;;;-148.52;100.00
3254;BME280;1639;42.804;23.342;2022-12-18T01:17:41;74370.63;;;-148.52;100.00
3254;BME280;1639;42.804;23.342;2022-12-18T01:20:07;74383.03;;;-148.52;100.00
3254;BME280;1639;42.804;23.342;2022-12-18T01:22:34;74393.38;;;-148.52;100.00
3254;BME280;1639;42.804;23.342;2022-12-18T01:25:00;74405.81;;;-148.52;100.00
3254;BME280;1639;42.804;23.342;2022-12-18T01:27:25;74412.00;;;-148.52;100.00
3254;BME280;1639;42.804;23.342;2022-12-18T01:29:51;74422.34;;;-148.52;100.00
3254;BME280;1639;42.804;23.342;2022-12-18T01:32:16;74432.69;;;-148.52;100.00
3254;BME280;1639;42.804;23.342;2022-12-18T01:34:42;74436.84;;;-148.52;100.00
3254;BME280;1639;42.804;23.342;2022-12-18T01:37:07;74445.13;;;-148.52;100.00
3254;BME280;1639;42.804;23.342;2022-12-18T01:39:33;74459.59;;;-148.52;100.00
3254;BME280;1639;42.804;23.342;2022-12-18T01:42:02;74451.31;;;-148.52;100.00
3254;BME280;1639;42.804;23.342;2022-12-18T01:49:54;74463.72;;;-148.52;100.00
3254;BME280;1639;42.804;23.342;2022-12-18T01:52:21;74469.94;;;-148.52;100.00
3254;BME280;1639;42.804;23.342;2022-12-18T01:54:48;74480.28;;;-148.52;100.00
3254;BME280;1639;42.804;23.342;2022-12-18T01:57:14;74478.22;;;-148.52;100.00
3254;BME280;1639;42.804;23.342;2022-12-18T01:59:42;74480.28;;;-148.52;100.00
3254;BME280;1639;42.804;23.342;2022-12-18T02:02:11;74486.50;;;-148.52;100.00
3254;BME280;1639;42.804;23.342;2022-12-18T02:04:36;74486.50;;;-148.52;100.00
3254;BME280;1639;42.804;23.342;2022-12-18T02:10:29;74492.69;;;-148.52;100.00
3254;BME280;1639;42.804;23.342;2022-12-18T02:13:19;74503.03;;;-148.52;100.00
3254;BME280;1639;42.804;23.342;2022-12-18T02:15:58;74494.78;;;-148.52;100.00
3254;BME280;1639;42.804;23.342;2022-12-18T02:18:30;74513.38;;;-148.52;100.00
3254;BME280;1639;42.804;23.342;2022-12-18T02:21:03;74511.31;;;-148.52;100.00
3254;BME280;1639;42.804;23.342;2022-12-18T02:28:41;74540.28;;;-148.52;100.00
3254;BME280;1639;42.804;23.342;2022-12-18T02:31:11;74542.34;;;-148.52;100.00
3254;BME280;1639;42.804;23.342;2022-12-18T02:33:39;74548.56;;;-148.52;100.00
3254;BME280;1639;42.804;23.342;2022-12-18T02:36:06;74550.63;;;-148.52;100.00
3254;BME280;1639;42.804;23.342;2022-12-18T02:38:32;74548.56;;;-148.52;100.00
3254;BME280;1639;42.804;23.342;2022-12-18T02:40:59;74556.84;;;-148.52;100.00
3254;BME280;1639;42.804;23.342;2022-12-18T02:43:25;74558.91;;;-148.52;100.00
3254;BME280;1639;42.804;23.342;2022-12-18T02:45:57;74556.84;;;-148.52;100.00
3254;BME280;1639;42.804;23.342;2022-12-18T02:48:32;74569.25;;;-148.52;100.00
3254;BME280;1639;42.804;23.342;2022-12-18T02:53:48;74571.31;;;-148.52;100.00
3254;BME280;1639;42.804;23.342;2022-12-18T02:56:20;74579.59;;;-148.52;100.00
3254;BME280;1639;42.804;23.342;2022-12-18T02:59:15;74581.66;;;-148.52;100.00
3254;BME280;1639;42.804;23.342;2022-12-18T03:01:53;74585.81;;;-148.52;100.00
3254;BME280;1639;42.804;23.342;2022-12-18T03:06:56;74602.34;;;-148.52;100.00
3254;BME280;1639;42.804;23.342;2022-12-18T03:09:32;74606.50;;;-148.52;100.00
3254;BME280;1639;42.804;23.342;2022-12-18T03:12:20;74610.63;;;-148.52;100.00
3254;BME280;1639;42.804;23.342;2022-12-18T03:15:13;74616.84;;;-148.52;100.00
3254;BME280;1639;42.804;23.342;2022-12-18T03:17:38;74625.13;;;-148.52;100.00
3254;BME280;1639;42.804;23.342;2022-12-18T03:20:11;74629.25;;;-148.52;100.00
3254;BME280;1639;42.804;23.342;2022-12-18T03:22:38;74623.06;;;-148.52;100.00
3254;BME280;1639;42.804;23.342;2022-12-18T03:25:08;74629.25;;;-148.52;100.00
3254;BME280;1639;42.804;23.342;2022-12-18T03:27:37;74643.75;;;-148.52;100.00
3254;BME280;1639;42.804;23.342;2022-12-18T03:30:08;74639.59;;;-148.52;100.00
3254;BME280;1639;42.804;23.342;2022-12-18T03:33:14;74660.28;;;-148.52;100.00
3254;BME280;1639;42.804;23.342;2022-12-18T03:35:44;74672.69;;;-148.52;100.00
3254;BME280;1639;42.804;23.342;2022-12-18T03:38:10;74676.84;;;-148.52;100.00
3254;BME280;1639;42.804;23.342;2022-12-18T03:41:07;74678.91;;;-148.52;100.00
3254;BME280;1639;42.804;23.342;2022-12-18T03:43:52;74672.69;;;-148.52;100.00
3254;BME280;1639;42.804;23.342;2022-12-18T03:46:27;74674.78;;;-148.52;100.00
3254;BME280;1639;42.804;23.342;2022-12-18T03:49:09;74674.78;;;-148.52;100.00
3254;BME280;1639;42.804;23.342;2022-12-18T03:51:44;74674.78;;;-148.52;100.00
3254;BME280;1639;42.804;23.342;2022-12-18T03:54:13;74676.84;;;-148.52;100.00
3254;BME280;1639;42.804;23.342;2022-12-18T03:56:43;74676.84;;;-148.52;100.00
3254;BME280;1639;42.804;23.342;2022-12-18T03:59:11;74676.84;;;-148.52;100.00
3254;BME280;1639;42.804;23.342;2022-12-18T04:01:42;74680.97;;;-148.52;100.00
3254;BME280;1639;42.804;23.342;2022-12-18T04:04:10;74687.19;;;-148.52;100.00
3254;BME280;1639;42.804;23.342;2022-12-18T04:06:37;74701.66;;;-148.52;100.00
3254;BME280;1639;42.804;23.342;2022-12-18T04:09:04;74705.81;;;-148.52;100.00
3254;BME280;1639;42.804;23.342;2022-12-18T04:11:30;74701.66;;;-148.52;100.00
3254;BME280;1639;42.804;23.342;2022-12-18T04:13:56;74716.16;;;-148.52;100.00
3254;BME280;1639;42.804;23.342;2022-12-18T04:16:26;74709.94;;;-148.52;100.00
3254;BME280;1639;42.804;23.342;2022-12-18T04:18:52;74709.94;;;-148.52;100.00
3254;BME280;1639;42.804;23.342;2022-12-18T04:21:18;74718.22;;;-148.52;100.00
3254;BME280;1639;42.804;23.342;2022-12-18T04:23:44;74726.50;;;-148.52;100.00
3254;BME280;1639;42.804;23.342;2022-12-18T04:26:09;74728.56;;;-148.52;100.00
3254;BME280;1639;42.804;23.342;2022-12-18T04:28:35;74726.50;;;-148.52;100.00
3254;BME280;1639;42.804;23.342;2022-12-18T04:31:01;74726.50;;;-148.52;100.00
3254;BME280;1639;42.804;23.342;2022-12-18T04:33:26;74730.63;;;-148.52;100.00
3254;BME280;1639;42.804;23.342;2022-12-18T04:35:52;74724.44;;;-148.52;100.00
3254;BME280;1639;42.804;23.342;2022-12-18T04:38:18;74714.09;;;-148.52;100.00
3254;BME280;1639;42.804;23.342;2022-12-18T04:40:43;74716.16;;;-148.52;100.00
3254;BME280;1639;42.804;23.342;2022-12-18T04:43:09;74709.94;;;-148.52;100.00
3254;BME280;1639;42.804;23.342;2022-12-18T04:45:34;74716.16;;;-148.52;100.00
3254;BME280;1639;42.804;23.342;2022-12-18T04:48:00;74726.50;;;-148.52;100.00
3254;BME280;1639;42.804;23.342;2022-12-18T04:50:26;74724.44;;;-148.52;100.00
3254;BME280;1639;42.804;23.342;2022-12-18T04:52:52;74734.78;;;-148.52;100.00
3254;BME280;1639;42.804;23.342;2022-12-18T04:55:17;74736.84;;;-148.52;100.00
3254;BME280;1639;42.804;23.342;2022-12-18T04:57:42;74738.91;;;-148.52;100.00
3254;BME280;1639;42.804;23.342;2022-12-18T05:00:08;74745.13;;;-148.52;100.00
3254;BME280;1639;42.804;23.342;2022-12-18T05:02:34;74745.13;;;-148.52;100.00
3254;BME280;1639;42.804;23.342;2022-12-18T05:04:59;74749.25;;;-148.52;100.00
3254;BME280;1639;42.804;23.342;2022-12-18T05:07:25;74753.41;;;-148.52;100.00
3254;BME280;1639;42.804;23.342;2022-12-18T05:09:50;74738.91;;;-148.52;100.00
3254;BME280;1639;42.804;23.342;2022-12-18T05:12:15;74747.19;;;-148.52;100.00
3254;BME280;1639;42.804;23.342;2022-12-18T05:14:41;74759.59;;;-148.52;100.00
3254;BME280;1639;42.804;23.342;2022-12-18T05:17:06;74757.53;;;-148.52;100.00
3254;BME280;1639;42.804;23.342;2022-12-18T05:19:32;74761.69;;;-148.52;100.00
3254;BME280;1639;42.804;23.342;2022-12-18T05:21:57;74763.75;;;-148.52;100.00
3254;BME280;1639;42.804;23.342;2022-12-18T05:24:22;74776.16;;;-148.52;100.00
3254;BME280;1639;42.804;23.342;2022-12-18T05:26:48;74786.50;;;-148.52;100.00
3254;BME280;1639;42.804;23.342;2022-12-18T05:29:13;74792.72;;;-148.52;100.00
3254;BME280;1639;42.804;23.342;2022-12-18T05:31:39;74801.00;;;-148.52;100.00
3254;BME280;1639;42.804;23.342;2022-12-18T05:34:05;74796.84;;;-148.52;100.00
3254;BME280;1639;42.804;23.342;2022-12-18T05:36:31;74796.84;;;-148.52;100.00
3254;BME280;1639;42.804;23.342;2022-12-18T05:38:56;74811.34;;;-148.52;100.00
3254;BME280;1639;42.804;23.342;2022-12-18T05:41:22;74815.47;;;-148.52;100.00
3254;BME280;1639;42.804;23.342;2022-12-18T05:43:47;74809.28;;;-148.52;100.00
3254;BME280;1639;42.804;23.342;2022-12-18T05:46:15;74815.47;;;-148.52;100.00
3254;BME280;1639;42.804;23.342;2022-12-18T05:48:43;74815.47;;;-148.52;100.00
3254;BME280;1639;42.804;23.342;2022-12-18T05:51:14;74805.13;;;-148.52;100.00
3254;BME280;1639;42.804;23.342;2022-12-18T05:53:41;74807.19;;;-148.52;100.00
3254;BME280;1639;42.804;23.342;2022-12-18T05:56:10;74809.28;;;-148.52;100.00
3254;BME280;1639;42.804;23.342;2022-12-18T05:58:36;74811.34;;;-148.52;100.00
3254;BME280;1639;42.804;23.342;2022-12-18T06:01:08;74829.97;;;-148.52;100.00
3254;BME280;1639;42.804;23.342;2022-12-18T06:03:34;74827.88;;;-148.52;100.00
3254;BME280;1639;42.804;23.342;2022-12-18T06:05:59;74834.09;;;-148.52;100.00
3254;BME280;1639;42.804;23.342;2022-12-18T06:08:24;74825.81;;;-148.52;100.00
3254;BME280;1639;42.804;23.342;2022-12-18T06:10:51;74832.03;;;-148.52;100.00
3254;BME280;1639;42.804;23.342;2022-12-18T06:13:18;74829.97;;;-148.52;100.00
3254;BME280;1639;42.804;23.342;2022-12-18T06:15:43;74834.09;;;-148.52;100.00
3254;BME280;1639;42.804;23.342;2022-12-18T06:18:08;74825.81;;;-148.52;100.00
3254;BME280;1639;42.804;23.342;2022-12-18T06:20:34;74829.97;;;-148.52;100.00
3254;BME280;1639;42.804;23.342;2022-12-18T06:23:02;74832.03;;;-148.52;100.00
3254;BME280;1639;42.804;23.342;2022-12-18T06:25:27;74842.38;;;-148.52;100.00
3254;BME280;1639;42.804;23.342;2022-12-18T06:27:52;74836.16;;;-148.52;100.00
3254;BME280;1639;42.804;23.342;2022-12-18T06:30:18;74823.75;;;-148.52;100.00
3254;BME280;1639;42.804;23.342;2022-12-18T06:32:43;74829.97;;;-148.52;100.00
3254;BME280;1639;42.804;23.342;2022-12-18T06:35:10;74817.53;;;-148.52;100.00
3254;BME280;1639;42.804;23.342;2022-12-18T06:37:35;74825.81;;;-148.52;100.00
3254;BME280;1639;42.804;23.342;2022-12-18T06:40:01;74817.53;;;-148.52;100.00
3254;BME280;1639;42.804;23.342;2022-12-18T06:42:26;74821.69;;;-148.52;100.00
3254;BME280;1639;42.804;23.342;2022-12-18T06:44:52;74838.25;;;-148.52;100.00
3254;BME280;1639;42.804;23.342;2022-12-18T06:47:18;74844.44;;;-148.52;100.00
3254;BME280;1639;42.804;23.342;2022-12-18T06:49:43;74852.72;;;-148.52;100.00
3254;BME280;1639;42.804;23.342;2022-12-18T06:52:09;74863.06;;;-148.52;100.00
3254;BME280;1639;42.804;23.342;2022-12-18T06:54:34;74873.41;;;-148.52;100.00
3254;BME280;1639;42.804;23.342;2022-12-18T06:57:00;74877.56;;;-148.52;100.00
3254;BME280;1639;42.804;23.342;2022-12-18T06:59:25;74892.03;;;-148.52;100.00
3254;BME280;1639;42.804;23.342;2022-12-18T07:01:50;74896.19;;;-148.52;100.00
3254;BME280;1639;42.804;23.342;2022-12-18T07:04:16;74900.31;;;-148.52;100.00
3254;BME280;1639;42.804;23.342;2022-12-18T07:06:41;74896.19;;;-148.52;100.00
3254;BME280;1639;42.804;23.342;2022-12-18T07:09:06;74904.44;;;-148.52;100.00
3254;BME280;1639;42.804;23.342;2022-12-18T07:11:32;74906.53;;;-148.52;100.00
3254;BME280;1639;42.804;23.342;2022-12-18T07:13:58;74902.38;;;-148.52;100.00
3254;BME280;1639;42.804;23.342;2022-12-18T07:16:23;74887.91;;;-148.52;100.00
3254;BME280;1639;42.804;23.342;2022-12-18T07:18:49;74883.75;;;-148.52;100.00
3254;BME280;1639;42.804;23.342;2022-12-18T07:21:17;74889.97;;;-148.52;100.00
3254;BME280;1639;42.804;23.342;2022-12-18T07:23:43;74885.81;;;-148.52;100.00
3254;BME280;1639;42.804;23.342;2022-12-18T07:26:11;74877.56;;;-148.52;100.00
3254;BME280;1639;42.804;23.342;2022-12-18T07:28:38;74877.56;;;-148.52;100.00
3254;BME280;1639;42.804;23.342;2022-12-18T07:31:15;74875.47;;;-148.52;100.00
3254;BME280;1639;42.804;23.342;2022-12-18T07:33:41;74875.47;;;-148.52;100.00
3254;BME280;1639;42.804;23.342;2022-12-18T07:36:08;74871.34;;;-148.52;100.00
3254;BME280;1639;42.804;23.342;2022-12-18T07:38:34;74852.72;;;-148.52;100.00
3254;BME280;1639;42.804;23.342;2022-12-18T07:41:09;74838.25;;;-148.52;100.00
3254;BME280;1639;42.804;23.342;2022-12-18T07:43:35;74842.38;;;-148.52;100.00
3254;BME280;1639;42.804;23.342;2022-12-18T07:46:01;74840.31;;;-148.52;100.00
3254;BME280;1639;42.804;23.342;2022-12-18T07:48:28;74840.31;;;-148.52;100.00
3254;BME280;1639;42.804;23.342;2022-12-18T07:50:53;74846.50;;;-148.52;100.00
3254;BME280;1639;42.804;23.342;2022-12-18T07:53:19;74863.06;;;-148.52;100.00
3254;BME280;1639;42.804;23.342;2022-12-18T07:55:44;74871.34;;;-148.52;100.00
3254;BME280;1639;42.804;23.342;2022-12-18T07:58:09;74883.75;;;-148.52;100.00
3254;BME280;1639;42.804;23.342;2022-12-18T08:00:35;74887.91;;;-148.52;100.00
3254;BME280;1639;42.804;23.342;2022-12-18T08:03:01;74887.91;;;-148.52;100.00
3254;BME280;1639;42.804;23.342;2022-12-18T08:05:26;74885.81;;;-148.52;100.00
3254;BME280;1639;42.804;23.342;2022-12-18T08:07:53;74892.03;;;-148.52;100.00
3254;BME280;1639;42.804;23.342;2022-12-18T08:10:19;74900.31;;;-148.52;100.00
3254;BME280;1639;42.804;23.342;2022-12-18T08:12:44;74908.59;;;-148.52;100.00
3254;BME280;1639;42.804;23.342;2022-12-18T08:15:10;74900.31;;;-148.52;100.00
3254;BME280;1639;42.804;23.342;2022-12-18T08:17:35;74892.03;;;-148.52;100.00
3254;BME280;1639;42.804;23.342;2022-12-18T08:20:01;74908.59;;;-148.52;100.00
3254;BME280;1639;42.804;23.342;2022-12-18T08:22:26;74914.78;;;-148.52;100.00
3254;BME280;1639;42.804;23.342;2022-12-18T08:24:52;74923.06;;;-148.52;100.00
3254;BME280;1639;42.804;23.342;2022-12-18T08:27:17;74921.00;;;-148.52;100.00
3254;BME280;1639;42.804;23.342;2022-12-18T08:29:43;74916.88;;;-148.52;100.00
3254;BME280;1639;42.804;23.342;2022-12-18T08:32:09;74923.06;;;-148.52;100.00
3254;BME280;1639;42.804;23.342;2022-12-18T08:34:35;74914.78;;;-148.52;100.00
3254;BME280;1639;42.804;23.342;2022-12-18T08:37:00;74908.59;;;-148.52;100.00
3254;BME280;1639;42.804;23.342;2022-12-18T08:39:26;74904.44;;;-148.52;100.00
3254;BME280;1639;42.804;23.342;2022-12-18T08:41:51;74887.91;;;-148.52;100.00
3254;BME280;1639;42.804;23.342;2022-12-18T08:44:36;74892.03;;;-148.52;100.00
3254;BME280;1639;42.804;23.342;2022-12-18T08:47:02;74892.03;;;-148.52;100.00
3254;BME280;1639;42.804;23.342;2022-12-18T08:49:28;74894.09;;;-148.52;100.00
3254;BME280;1639;42.804;23.342;2022-12-18T08:51:55;74875.47;;;-148.52;100.00
3254;BME280;1639;42.804;23.342;2022-12-18T08:54:22;74871.34;;;-148.52;100.00
3254;BME280;1639;42.804;23.342;2022-12-18T08:56:47;74871.34;;;-148.52;100.00
3254;BME280;1639;42.804;23.342;2022-12-18T08:59:15;74863.06;;;-148.52;100.00
3254;BME280;1639;42.804;23.342;2022-12-18T09:01:40;74869.28;;;-148.52;100.00
3254;BME280;1639;42.804;23.342;2022-12-18T09:04:05;74875.47;;;-148.52;100.00
3254;BME280;1639;42.804;23.342;2022-12-18T09:06:31;74879.63;;;-148.52;100.00
3254;BME280;1639;42.804;23.342;2022-12-18T09:08:57;74885.81;;;-148.52;100.00
3254;BME280;1639;42.804;23.342;2022-12-18T09:11:24;74879.63;;;-148.52;100.00
3254;BME280;1639;42.804;23.342;2022-12-18T09:13:50;74881.69;;;-148.52;100.00
3254;BME280;1639;42.804;23.342;2022-12-18T09:16:16;74877.56;;;-148.52;100.00
3254;BME280;1639;42.804;23.342;2022-12-18T09:18:42;74856.84;;;-148.52;100.00
3254;BME280;1639;42.804;23.342;2022-12-18T09:21:19;74858.94;;;-148.52;100.00
3254;BME280;1639;42.804;23.342;2022-12-18T09:23:49;74848.59;;;-148.52;100.00
3254;BME280;1639;42.804;23.342;2022-12-18T09:26:15;74850.66;;;-148.52;100.00
3254;BME280;1639;42.804;23.342;2022-12-18T09:28:40;74863.06;;;-148.52;100.00
3254;BME280;1639;42.804;23.342;2022-12-18T09:31:07;74875.47;;;-148.52;100.00
3254;BME280;1639;42.804;23.342;2022-12-18T09:33:36;74867.22;;;-148.52;100.00
3254;BME280;1639;42.804;23.342;2022-12-18T09:36:08;74869.28;;;-148.52;100.00
3254;BME280;1639;42.804;23.342;2022-12-18T09:38:35;74871.34;;;-148.52;100.00
3254;BME280;1639;42.804;23.342;2022-12-18T09:41:05;74867.22;;;-148.52;100.00
3254;BME280;1639;42.804;23.342;2022-12-18T09:47:04;74863.06;;;-148.52;100.00
3254;BME280;1639;42.804;23.342;2022-12-18T09:49:35;74854.78;;;-148.52;100.00
3254;BME280;1639;42.804;23.342;2022-12-18T09:54:40;74842.38;;;-148.52;100.00
3254;BME280;1639;42.804;23.342;2022-12-18T09:57:12;74842.38;;;-148.52;100.00
3254;BME280;1639;42.804;23.342;2022-12-18T09:59:38;74829.97;;;-148.52;100.00
3254;BME280;1639;42.804;23.342;2022-12-18T10:02:19;74834.09;;;-148.52;100.00
3254;BME280;1639;42.804;23.342;2022-12-18T10:05:02;74819.63;;;-148.52;100.00
3254;BME280;1639;42.804;23.342;2022-12-18T10:07:58;74811.34;;;-148.52;100.00
3254;BME280;1639;42.804;23.342;2022-12-18T10:10:40;74819.63;;;-148.52;100.00
3254;BME280;1639;42.804;23.342;2022-12-18T10:21:03;74809.28;;;-148.52;100.00
3254;BME280;1639;42.804;23.342;2022-12-18T10:26:13;74809.28;;;-148.52;100.00
3254;BME280;1639;42.804;23.342;2022-12-18T10:28:39;74813.41;;;-148.52;100.00
3254;BME280;1639;42.804;23.342;2022-12-18T10:31:06;74811.34;;;-148.52;100.00
3254;BME280;1639;42.804;23.342;2022-12-18T10:33:33;74796.84;;;-148.52;100.00
3254;BME280;1639;42.804;23.342;2022-12-18T10:35:59;74801.00;;;-148.52;100.00
3254;BME280;1639;42.804;23.342;2022-12-18T10:38:29;74809.28;;;-148.52;100.00
3254;BME280;1639;42.804;23.342;2022-12-18T10:41:00;74786.50;;;-148.52;100.00
3254;BME280;1639;42.804;23.342;2022-12-18T10:48:53;74761.69;;;-148.52;100.00
3254;BME280;1639;42.804;23.342;2022-12-18T10:51:28;74763.75;;;-148.52;100.00
3254;BME280;1639;42.804;23.342;2022-12-18T10:54:37;74763.75;;;-148.52;100.00
3254;BME280;1639;42.804;23.342;2022-12-18T10:56:43;74751.34;;;-148.52;100.00
3254;BME280;1639;42.804;23.342;2022-12-18T10:59:11;74757.53;;;-148.52;100.00
3254;BME280;1639;42.804;23.342;2022-12-18T11:04:28;74728.56;;;-148.52;100.00
3254;BME280;1639;42.804;23.342;2022-12-18T11:07:05;74716.16;;;-148.52;100.00
3254;BME280;1639;42.804;23.342;2022-12-18T11:09:35;74705.81;;;-148.52;100.00
3254;BME280;1639;42.804;23.342;2022-12-18T11:12:14;74699.59;;;-148.52;100.00
3254;BME280;1639;42.804;23.342;2022-12-18T11:14:54;74687.19;;;-148.52;100.00
3254;BME280;1639;42.804;23.342;2022-12-18T11:17:27;74695.47;;;-148.52;100.00
3254;BME280;1639;42.804;23.342;2022-12-18T11:19:59;74687.19;;;-148.52;100.00
3254;BME280;1639;42.804;23.342;2022-12-18T11:22:34;74687.19;;;-148.52;100.00
3254;BME280;1639;42.804;23.342;2022-12-18T11:25:03;74676.84;;;-148.52;100.00
3254;BME280;1639;42.804;23.342;2022-12-18T11:27:31;74678.91;;;-148.52;100.00
3254;BME280;1639;42.804;23.342;2022-12-18T11:32:51;74666.50;;;-148.52;100.00
3254;BME280;1639;42.804;23.342;2022-12-18T11:35:21;74664.44;;;-148.52;100.00
3254;BME280;1639;42.804;23.342;2022-12-18T11:37:54;74668.56;;;-148.52;100.00
3254;BME280;1639;42.804;23.342;2022-12-18T11:40:36;74668.56;;;-148.52;100.00
3254;BME280;1639;42.804;23.342;2022-12-18T11:46:14;74652.00;;;-148.52;100.00
3254;BME280;1639;42.804;23.342;2022-12-18T11:48:48;74639.59;;;-148.52;100.00
3254;BME280;1639;42.804;23.342;2022-12-18T11:51:22;74643.75;;;-148.52;100.00
3254;BME280;1639;42.804;23.342;2022-12-18T11:53:51;74633.41;;;-148.52;100.00
3254;BME280;1639;42.804;23.342;2022-12-18T11:56:35;74635.47;;;-148.52;100.00
3254;BME280;1639;42.804;23.342;2022-12-18T11:59:33;74635.47;;;-148.52;100.00
3254;BME280;1639;42.804;23.342;2022-12-18T12:10:08;74587.88;;;-148.52;100.00
3254;BME280;1639;42.804;23.342;2022-12-18T12:26:21;74606.50;;;-148.52;100.00
3254;BME280;1639;42.804;23.342;2022-12-18T12:36:57;74629.25;;;-148.52;100.00
3254;BME280;1639;42.804;23.342;2022-12-18T12:39:34;74618.91;;;-148.52;100.00
3254;BME280;1639;42.804;23.342;2022-12-18T12:42:03;74625.13;;;-148.52;100.00
3254;BME280;1639;42.804;23.342;2022-12-18T12:44:51;74627.19;;;-148.52;100.00
3254;BME280;1639;42.804;23.342;2022-12-18T12:47:31;74610.63;;;-148.52;100.00
3254;BME280;1639;42.804;23.342;2022-12-18T12:50:04;74600.28;;;-148.52;100.00
3254;BME280;1639;42.804;23.342;2022-12-18T12:52:34;74610.63;;;-148.52;100.00
3254;BME280;1639;42.804;23.342;2022-12-18T12:55:04;74623.06;;;-148.52;100.00
3254;BME280;1639;42.804;23.342;2022-12-18T13:01:04;74658.22;;;-148.52;100.00
3254;BME280;1639;42.804;23.342;2022-12-18T13:06:19;74664.44;;;-148.52;100.00
3254;BME280;1639;42.804;23.342;2022-12-18T13:08:59;74664.44;;;-148.52;100.00
3254;BME280;1639;42.804;23.342;2022-12-18T13:14:47;74691.31;;;-148.52;100.00
3254;BME280;1639;42.804;23.342;2022-12-18T13:19:55;74703.75;;;-148.52;100.00
3254;BME280;1639;42.804;23.342;2022-12-18T13:22:37;74714.09;;;-148.52;100.00
3254;BME280;1639;42.804;23.342;2022-12-18T13:28:09;74724.44;;;-148.52;100.00
3254;BME280;1639;42.804;23.342;2022-12-18T13:38:34;74680.97;;;-148.52;100.00
3254;BME280;1639;42.804;23.342;2022-12-18T13:41:26;74699.59;;;-148.52;100.00
3254;BME280;1639;42.804;23.342;2022-12-18T13:43:52;74672.69;;;-148.52;100.00
3254;BME280;1639;42.804;23.342;2022-12-18T13:48:54;74726.50;;;-148.52;100.00
3254;BME280;1639;42.804;23.342;2022-12-18T13:51:21;74745.13;;;-148.52;100.00
3254;BME280;1639;42.804;23.342;2022-12-18T13:53:57;74763.75;;;-148.52;100.00
3254;BME280;1639;42.804;23.342;2022-12-18T13:56:26;74782.38;;;-148.52;100.00
3254;BME280;1639;42.804;23.342;2022-12-18T13:59:16;74792.72;;;-148.52;100.00
3254;BME280;1639;42.804;23.342;2022-12-18T14:04:28;74796.84;;;-148.52;100.00
3254;BME280;1639;42.804;23.342;2022-12-18T14:07:27;74788.56;;;-148.52;100.00
3254;BME280;1639;42.804;23.342;2022-12-18T14:09:55;74805.13;;;-148.52;100.00
3254;BME280;1639;42.804;23.342;2022-12-18T14:12:29;74811.34;;;-148.52;100.00
3254;BME280;1639;42.804;23.342;2022-12-18T14:17:50;74842.38;;;-148.52;100.00
3254;BME280;1639;42.804;23.342;2022-12-18T14:20:17;74867.22;;;-148.52;100.00
3254;BME280;1639;42.804;23.342;2022-12-18T14:22:45;74875.47;;;-148.52;100.00
3254;BME280;1639;42.804;23.342;2022-12-18T14:25:22;74879.63;;;-148.52;100.00
3254;BME280;1639;42.804;23.342;2022-12-18T14:27:53;74879.63;;;-148.52;100.00
3254;BME280;1639;42.804;23.342;2022-12-18T14:33:14;74896.19;;;-148.52;100.00
3254;BME280;1639;42.804;23.342;2022-12-18T14:35:43;74908.59;;;-148.52;100.00
3254;BME280;1639;42.804;23.342;2022-12-18T14:38:24;74910.66;;;-148.52;100.00
3254;BME280;1639;42.804;23.342;2022-12-18T14:40:55;74929.28;;;-148.52;100.00
3254;BME280;1639;42.804;23.342;2022-12-18T14:43:21;74937.56;;;-148.52;100.00
3254;BME280;1639;42.804;23.342;2022-12-18T14:45:47;74943.75;;;-148.52;100.00